AirNav   Air Wisconsin Up To $57,000 Bonus
 
 966 users online  

58FL A I M Heliport
Boca Raton, Florida, USA

GOING TO BOCA RATON?


FAA INFORMATION EFFECTIVE 07 NOVEMBER 2019

Location

FAA Identifier: 58FL
Lat/Long: 26-24-56.2710N 080-11-29.1650W
26-24.937850N 080-11.486083W
26.4156308,-80.1914347
(estimated)
Elevation: 20 ft. / 6 m (estimated)
Variation: 03W (1985)
From city: 8 miles W of BOCA RATON, FL
Time zone: UTC -5 (UTC -4 during Daylight Saving Time)
Zip code: 33496

Heliport Operations

Heliport use: Private use. Permission required prior to landing
Activation date: 04/1982
Control tower: no
ARTCC: MIAMI CENTER
FSS: MIAMI FLIGHT SERVICE STATION
Attendance: UNATNDD
Wind indicator: yes
Segmented circle: no

Heliport Communications

WX AWOS-3 at BCT (5 nm SE): 121.125 (561-391-2696)
WX ASOS at PMP (11 nm SE): PHONE 954-783-3720
WX AWOS-3PT at LNA (12 nm NE): 119.925 (561-964-0308)
WX ASOS at FXE (13 nm S): PHONE 954-772-2537
WX ASOS at PBI (17 nm N): 123.75 (561-683-2548)

Nearby radio navigation aids

VOR radial/distance  VOR name  Freq  Var
PBIr203/16.8PALM BEACH VORTAC115.7003W
FLLr002/20.5FORT LAUDERDALE VOR/DME114.4006W
PHKr129/34.7PAHOKEE VOR/DME115.4000E
DHPr017/37.9DOLPHIN VORTAC113.9004W
VKZr001/39.9VIRGINIA KEY VOR/DME117.1004W

 
NDB name  Hdg/Dist  Freq  Var  ID
UNITED170/30.640505WUTX ..- - -..-

Heliport Services

Runway Information

Helipad H1

Dimensions: 60 x 60 ft. / 18 x 18 m
Surface: turf, in fair condition
Latitude: 26-24.937850N
Longitude: 080-11.486083W
Elevation: 20.0 ft.
Traffic pattern: leftleft
Markings: none, in fair condition

Heliport Ownership and Management from official FAA records

Ownership: Privately-owned
Owner: A.I.M. INVESTMENT
8780 HORSESHOE LANE
BOCA RATON, FL 33434
Phone 305-482-1010
Manager: ALUIN MALNIK
8780 HORSESHOE LAND
BOBA RATON, FL 33434
Phone 305-482-1010

Heliport Operational Statistics

Aircraft based on the field: 1
Helicopters: 1
    

Additional Remarks

A52-H1 TV ANTENNA-M 265' EAST OF HELIPAD.
FOR CD CTC PALM BEACH APCH AT 561-275-1430

Instrument Procedures

There are no published instrument procedures at 58FL.

Some nearby airports with instrument procedures:

KBCT - Boca Raton Airport (5 nm SE)
KPMP - Pompano Beach Airpark (11 nm SE)
KLNA - Palm Beach County Park Airport (12 nm NE)
KFXE - Fort Lauderdale Executive Airport (13 nm S)
KPBI - Palm Beach International Airport (17 nm N)
 
Loc | Ops | Rwys | IFR | FBO | Links
Com | Nav | Svcs | Stats | Notes


 
Area around 58FL (A I M Heliport)
 
Road maps at: MapQuest Bing Google
 
Aerial photo
No photo
 
Sectional chart

 
Airport distance calculator
Flying to A I M Heliport? Find the distance to fly.

From to 58FL

Sunrise and sunset
Times for 21-Nov-2019
 Local
(UTC-5)
 Zulu
(UTC)
Morning civil twilight06:2111:21
Sunrise06:4511:45
Sunset17:2822:28
Evening civil twilight17:5322:53

Current date and time
Zulu (UTC)  21-Nov-2019 13:36:32
Local (UTC-5)  21-Nov-2019 08:36:32
 
METAR
KBCT 
5nm E 
211153Z 01004KT 10SM BKN050 18/13 A3014
KPMP 
11nm S 
211253Z 32004KT 10SM OVC050 18/13 A3016 RMK AO2 SLP212 T01830133
KLNA 
12nm NE 
211315Z AUTO 34004KT 10SM OVC050 19/14 A3018 RMK AO2 T01910144 PNO
KFXE 
13nm S 
211253Z 33003KT 10SM SCT050 18/13 A3015 RMK AO2 SLP213 T01780133
KPBI 
17nm N 
211253Z 32005KT 10SM BKN048 18/13 A3017 RMK AO2 SLP215 T01780133
TAF
KFXE 
13nm S 
211130Z 2112/2212 VRB06KT P6SM SCT045 FM211300 03008KT P6SM SCT040 SCT250 FM211600 07010KT P6SM SCT040 SCT250 FM220200 06005KT P6SM SCT035
KPBI 
17nm N 
211130Z 2112/2212 VRB05KT P6SM SCT045 FM211300 03008KT P6SM SCT040 SCT250 FM211600 07010KT P6SM SCT040 SCT250 FM220200 07006KT P6SM SCT035
NOTAMs
Click for the latest NOTAMs
NOTAMs are issued by the DoD/FAA and will open in a separate window not controlled by AirNav.

 

 
 

Would you like to see your business listed on this page?

 If your business provides an interesting product or service to pilots, flight crews, aircraft, or users of the A I M Heliport, you should consider listing it here.  To start the listing process, click on the button below
 
Add a business
 

Other Pages about A I M Heliport

Update a link
 
Copyright © AirNav, LLC. All rights reserved. Privacy Policy  Contact